Latest Weather Observations for Hobart

IDT60901

Issued at 12:51 pm EST Thursday 25 August 2016 (issued every 10 minutes, with the page automatically refreshed every 10 minutes)

About weather observations | Map of Hobart area stations | Latest observations for Hobart area | Other Formats
Station Details ID: 094029 Name: HOBART (ELLERSLIE ROAD) Lat: -42.89 Lon: 147.33 Height: 50.5 m
Data from the previous 72 hours. | See also: Recent months at Hobart
Date/Time
EST
Temp
°C
App
Temp
°C
Dew
Point
°C
Rel
Hum
%
Delta-T
°C
Wind Press
QNH
hPa
Press
MSL
hPa
Rain since
9am
mm
Dir  Spd
km/h
Gust
km/h
Spd
kts
Gust
kts
25/12:30pm 11.3 6.1 2.2 53 3.9 SW 19 28 10 15 1011.2 1011.2 0.0
25/12:00pm 13.5 9.2 1.1 43 5.3 WSW 13 22 7 12 1011.3 1011.3 0.0
25/11:30am 12.2 7.3 1.7 48 4.5 SSW 17 28 9 15 1011.6 1011.6 0.0
25/11:00am 11.5 6.9 1.3 49 4.3 SW 15 30 8 16 1011.6 1011.6 0.0
25/10:30am 10.7 6.4 1.1 51 4.0 SW 13 30 7 16 1011.3 1011.3 0.0
25/10:00am 10.3 7.0 2.3 57 3.4 NW 9 13 5 7 1011.4 1011.4 0.0
25/09:30am 7.6 3.4 1.5 65 2.5 NNW 13 17 7 9 1011.5 1011.5 0.0
25/09:00am 6.6 1.6 1.1 68 2.2 NNW 17 20 9 11 1011.4 1011.4 0.0
25/08:30am 5.7 0.7 1.2 73 1.8 NNW 17 22 9 12 1011.2 1011.2 0.0
25/08:00am 5.9 1.6 1.1 71 1.9 NNW 13 17 7 9 1010.9 1010.9 0.0
25/07:30am 4.3 0.8 1.0 79 1.3 NW 9 13 5 7 1010.9 1010.9 0.0
25/07:00am 3.8 -0.2 0.7 80 1.2 NW 11 24 6 13 1010.6 1010.6 0.0
25/06:30am 4.0 0.1 0.9 80 1.2 NNW 11 15 6 8 1010.1 1010.2 0.0
25/06:00am 4.3 -0.1 0.4 76 1.5 NW 13 17 7 9 1009.8 1009.9 0.0
25/05:30am 4.1 -0.2 0.7 78 1.3 NNW 13 20 7 11 1009.7 1009.8 0.0
25/05:00am 4.5 0.1 0.6 76 1.5 NW 13 20 7 11 1009.7 1009.8 0.0
25/04:30am 4.5 0.5 0.6 76 1.5 NNW 11 17 6 9 1009.5 1009.6 0.0
25/04:00am 4.0 0.4 0.3 77 1.4 NNW 9 13 5 7 1009.4 1009.5 0.0
25/03:30am 4.4 -0.4 0.5 76 1.5 NW 15 19 8 10 1009.3 1009.4 0.0
25/03:00am 4.5 -0.6 0.6 76 1.5 NNW 17 22 9 12 1009.4 1009.5 0.0
25/02:30am 3.6 -0.4 0.2 78 1.3 WNW 11 15 6 8 1009.5 1009.6 0.0
25/02:00am 3.8 0.1 0.1 77 1.4 NW 9 13 5 7 1009.5 1009.6 0.0
25/01:30am 3.8 -0.3 0.1 77 1.4 W 11 15 6 8 1009.6 1009.7 0.0
25/01:00am 3.7 0.1 0.3 78 1.3 NW 9 13 5 7 1009.8 1009.9 0.0
25/12:30am 4.4 2.0 -0.1 72 1.7 NNW 2 7 1 4 1009.9 1010.0 0.0
25/12:00am 4.5 1.2 0.0 72 1.7 W 7 15 4 8 1009.9 1010.0 0.0
 
Date/Time
EST
Temp
°C
App
Temp
°C
Dew
Point
°C
Rel
Hum
%
Delta-T
°C
Wind Press
QNH
hPa
Press
MSL
hPa
Rain since
9am
mm
Dir  Spd
km/h
Gust
km/h
Spd
kts
Gust
kts
24/11:30pm 5.0 2.6 0.0 70 1.9 N 2 9 1 5 1010.0 1010.1 0.0
24/11:00pm 4.6 1.3 -0.1 71 1.8 WNW 7 13 4 7 1010.1 1010.2 0.0
24/10:30pm 5.4 1.3 -0.1 67 2.1 W 11 19 6 10 1010.4 1010.4 0.0
24/10:00pm 5.1 2.0 0.2 70 1.9 WNW 6 9 3 5 1010.4 1010.4 0.0
24/09:30pm 5.7 3.0 0.3 68 2.1 SW 4 11 2 6 1010.6 1010.6 0.0
24/09:00pm 6.2 3.5 0.3 66 2.3 W 4 11 2 6 1010.7 1010.7 0.0
24/08:30pm 5.8 3.2 0.7 70 2.0 E 4 9 2 5 1010.7 1010.7 0.0
24/08:00pm 6.1 2.8 0.2 66 2.3 NNE 7 11 4 6 1010.6 1010.6 0.0
24/07:30pm 6.3 2.7 0.4 66 2.3 WSW 9 15 5 8 1010.7 1010.7 0.0
24/07:00pm 6.7 3.1 0.6 65 2.4 WSW 9 13 5 7 1010.7 1010.7 0.0
24/06:30pm 7.5 4.3 0.8 62 2.7 SW 7 13 4 7 1010.5 1010.5 0.0
24/06:00pm 8.1 4.5 0.9 60 2.9 W 9 15 5 8 1010.1 1010.2 0.0
24/05:30pm 9.2 4.3 -0.4 51 3.8 SSW 15 19 8 10 1010.0 1010.1 0.0
24/05:00pm 9.8 6.5 -0.2 50 4.0 SW 7 13 4 7 1010.0 1010.1 0.0
24/04:30pm 10.6 6.1 -0.3 47 4.4 WSW 13 24 7 13 1009.6 1009.7 0.0
24/04:00pm 11.4 5.4 -1.5 40 5.1 SW 20 33 11 18 1009.5 1009.6 0.0
24/03:30pm 11.4 5.9 0.9 48 4.4 SSW 19 28 10 15 1009.6 1009.7 0.0
24/03:00pm 11.5 6.2 -0.3 44 4.8 S 17 30 9 16 1009.7 1009.8 0.0
24/02:30pm 12.1 8.2 0.9 46 4.7 NNE 11 17 6 9 1009.8 1009.9 0.0
24/02:00pm 11.5 6.9 1.3 49 4.3 ENE 15 19 8 10 1010.0 1010.1 0.0
24/01:30pm 11.7 8.6 0.3 45 4.7 E 6 11 3 6 1010.2 1010.3 0.0
24/01:00pm 12.7 8.8 1.2 45 4.9 WSW 11 15 6 8 1010.6 1010.6 0.0
24/12:30pm 11.7 6.6 1.0 48 4.5 NW 17 24 9 13 1010.8 1010.8 0.0
24/12:00pm 11.9 7.7 1.6 49 4.4 NW 13 20 7 11 1011.3 1011.3 0.0
24/11:30am 11.4 5.8 1.2 49 4.3 NNW 20 28 11 15 1011.7 1011.7 0.0
24/11:00am 11.0 5.6 1.2 51 4.1 NNW 19 32 10 17 1011.9 1011.9 0.0
24/10:30am 10.7 5.4 1.7 53 3.8 NNW 19 24 10 13 1012.1 1012.1 0.0
24/10:00am 9.8 6.4 1.7 57 3.4 NNW 9 17 5 9 1012.5 1012.6 0.0
24/09:30am 9.8 5.9 1.4 56 3.5 WNW 11 19 6 10 1012.7 1012.8 0.0
24/09:00am 8.4 3.2 2.2 65 2.6 NW 19 30 10 16 1013.2 1013.3 0.0
24/08:30am 7.9 3.0 2.1 67 2.4 NW 17 28 9 15 1013.3 1013.4 0.0
24/08:00am 7.1 1.6 1.7 68 2.2 WNW 20 28 11 15 1013.3 1013.4 0.0
24/07:30am 6.6 1.3 1.7 71 2.0 NW 19 28 10 15 1013.2 1013.3 0.0
24/07:00am 6.0 1.1 1.8 74 1.7 WNW 17 24 9 13 1013.2 1013.3 0.0
24/06:30am 5.4 1.2 1.6 76 1.5 WNW 13 22 7 12 1012.9 1013.0 0.0
24/06:00am 5.2 1.0 1.4 76 1.5 W 13 17 7 9 1012.9 1013.0 0.0
24/05:30am 5.0 1.5 1.5 78 1.4 W 9 13 5 7 1012.9 1013.0 0.0
24/05:00am 5.0 1.6 1.7 79 1.3 W 9 13 5 7 1012.8 1012.9 0.0
24/04:30am 6.1 1.6 1.9 74 1.7 W 15 20 8 11 1012.9 1013.0 0.0
24/04:00am 5.6 1.4 1.9 77 1.5 W 13 20 7 11 1012.8 1012.9 0.0
24/03:30am 6.1 1.9 1.9 74 1.7 WNW 13 20 7 11 1012.9 1013.0 0.0
24/03:00am 5.8 2.4 2.1 77 1.5 SW 9 13 5 7 1013.3 1013.4 0.0
24/02:30am 6.6 1.7 1.9 72 1.9 WNW 17 24 9 13 1013.4 1013.5 0.0
24/02:00am 6.7 2.6 2.1 72 1.9 WNW 13 22 7 12 1013.8 1013.9 0.0
24/01:30am 6.4 3.4 2.0 73 1.8 NW 7 13 4 7 1013.8 1013.9 0.0
24/01:00am 6.8 3.0 1.9 71 2.0 W 11 19 6 10 1014.0 1014.1 0.0
24/12:30am 6.3 2.6 2.1 74 1.7 SW 11 19 6 10 1014.1 1014.2 0.0
24/12:00am 6.3 4.7 2.4 76 1.6 CALM 0 7 0 4 1014.1 1014.2 0.0
 
Date/Time
EST
Temp
°C
App
Temp
°C
Dew
Point
°C
Rel
Hum
%
Delta-T
°C
Wind Press
QNH
hPa
Press
MSL
hPa
Rain since
9am
mm
Dir  Spd
km/h
Gust
km/h
Spd
kts
Gust
kts
23/11:30pm 7.1 4.1 2.0 70 2.1 S 7 11 4 6 1014.3 1014.4 0.0
23/11:00pm 7.2 3.5 2.1 70 2.1 W 11 19 6 10 1014.1 1014.2 0.0
23/10:30pm 7.3 3.6 2.2 70 2.1 W 11 17 6 9 1014.2 1014.3 0.0
23/10:00pm 7.6 2.7 1.7 66 2.4 WNW 17 30 9 16 1014.4 1014.5 0.0
23/09:30pm 7.1 3.7 1.7 68 2.2 W 9 19 5 10 1014.5 1014.6 0.0
23/09:00pm 7.5 2.5 1.3 65 2.5 WNW 17 22 9 12 1014.4 1014.5 0.0
23/08:30pm 6.9 2.6 0.9 65 2.4 WSW 13 20 7 11 1014.6 1014.7 0.0
23/08:00pm 7.1 3.5 0.8 64 2.5 W 9 19 5 10 1014.5 1014.6 0.0
23/07:30pm 8.1 2.6 0.6 59 3.0 NW 19 26 10 14 1014.3 1014.4 0.0
23/07:00pm 8.4 3.9 -0.2 54 3.4 NW 13 19 7 10 1014.2 1014.3 0.0
23/06:30pm 9.5 3.6 -1.0 48 4.1 WNW 20 28 11 15 1014.2 1014.3 0.0
23/06:00pm 8.0 4.0 0.5 59 3.0 W 11 17 6 9 1014.2 1014.3 0.0
23/05:30pm 8.9 5.3 0.8 57 3.3 SW 9 13 5 7 1014.0 1014.1 0.0
23/05:00pm 9.8 4.1 0.4 52 3.8 SW 20 32 11 17 1013.6 1013.7 0.0
23/04:30pm 10.0 4.4 1.0 53 3.7 SW 20 30 11 16 1013.2 1013.3 0.0
23/04:00pm 11.1 4.6 -2.4 39 5.2 SW 22 32 12 17 1012.9 1013.0 0.0
23/03:30pm 12.2 7.2 -1.3 39 5.4 SW 15 22 8 12 1012.8 1012.9 0.0
23/03:00pm 12.3 8.0 0.9 45 4.8 NE 13 17 7 9 1012.8 1012.9 0.0
23/02:30pm 11.8 6.1 -0.5 42 5.0 SW 19 28 10 15 1012.8 1012.9 0.0
23/02:00pm 11.6 7.2 0.5 46 4.6 S 13 19 7 10 1012.8 1012.9 0.0
23/01:30pm 11.7 8.2 1.0 48 4.5 N 9 13 5 7 1012.6 1012.7 0.0
23/01:00pm 11.9 7.7 1.6 49 4.4 NE 13 17 7 9 1012.6 1012.7 0.0
23/12:30pm 11.4 7.1 0.8 48 4.4 NNW 13 22 7 12 1013.0 1013.1 0.0
23/12:00pm 11.2 6.9 1.2 50 4.2 NNW 13 20 7 11 1013.3 1013.4 0.0
23/11:30am 11.1 6.1 1.3 51 4.1 NNW 17 24 9 13 1013.5 1013.6 0.0
23/11:00am 11.2 6.2 1.2 50 4.2 NNW 17 26 9 14 1013.7 1013.8 0.0
23/10:30am 10.4 4.4 1.3 53 3.8 NNW 22 30 12 16 1013.9 1014.0 0.0
23/10:00am 10.9 5.9 1.4 52 4.0 NNW 17 26 9 14 1013.9 1014.0 0.0
23/09:30am 10.1 4.2 1.5 55 3.6 NNW 22 32 12 17 1014.1 1014.2 0.0
23/09:00am 9.0 4.0 1.5 59 3.1 NW 17 26 9 14 1014.1 1014.2 0.0
23/08:30am 7.7 3.8 1.3 64 2.6 N 11 20 6 11 1013.9 1014.0 0.0
23/08:00am 6.2 3.3 1.2 70 2.0 NNW 6 13 3 7 1013.8 1013.9 0.0
23/07:30am 4.4 0.4 0.8 77 1.4 W 11 15 6 8 1013.8 1013.9 0.0
23/07:00am 3.4 -0.2 0.5 81 1.1 WSW 9 13 5 7 1013.5 1013.6 0.0
23/06:30am 3.7 -0.7 0.6 80 1.2 W 13 17 7 9 1013.1 1013.2 0.0
23/06:00am 3.3 -0.3 0.7 83 1.0 WSW 9 11 5 6 1013.0 1013.1 0.0
23/05:30am 3.2 -0.8 0.6 83 1.0 W 11 20 6 11 1012.7 1012.8 0.0
23/05:00am 3.9 -0.1 0.5 78 1.3 WSW 11 17 6 9 1012.6 1012.7 0.0
23/04:30am 3.6 -0.8 0.2 78 1.3 WSW 13 17 7 9 1012.6 1012.7 0.0
23/04:00am 4.1 0.5 0.4 77 1.4 WSW 9 24 5 13 1012.5 1012.6 0.0
23/03:30am 5.5 1.1 0.3 69 2.0 NW 13 20 7 11 1012.4 1012.5 0.0
23/03:00am 5.4 -0.2 0.2 69 2.0 NW 19 32 10 17 1012.5 1012.6 0.0
23/02:30am 5.1 0.7 0.1 70 1.9 NW 13 22 7 12 1012.8 1012.9 0.0
23/02:00am 5.6 -0.3 -0.5 65 2.3 NNW 20 26 11 14 1012.9 1013.0 0.0
23/01:30am 5.8 0.5 -0.5 64 2.4 NNW 17 22 9 12 1013.0 1013.1 0.0
23/01:00am 4.8 0.4 0.4 73 1.7 WNW 13 26 7 14 1012.9 1013.0 0.0
23/12:30am 4.6 0.5 0.1 72 1.7 W 11 19 6 10 1013.0 1013.1 0.0
23/12:00am 4.7 0.3 0.3 73 1.7 W 13 17 7 9 1012.8 1012.9 0.0
 
Date/Time
EST
Temp
°C
App
Temp
°C
Dew
Point
°C
Rel
Hum
%
Delta-T
°C
Wind Press
QNH
hPa
Press
MSL
hPa
Rain since
9am
mm
Dir  Spd
km/h
Gust
km/h
Spd
kts
Gust
kts
22/11:30pm 5.5 2.2 0.0 68 2.1 WNW 7 13 4 7 1012.8 1012.9 0.0
22/11:00pm 6.0 2.3 0.1 66 2.3 WNW 9 13 5 7 1012.7 1012.8 0.0
22/10:30pm 5.9 3.6 0.5 68 2.1 NE 2 7 1 4 1012.7 1012.8 0.0
22/10:00pm 6.2 3.2 0.6 67 2.2 NW 6 13 3 7 1012.7 1012.8 0.0
22/09:30pm 6.5 3.8 0.1 63 2.5 SE 4 9 2 5 1012.5 1012.6 0.0
22/09:00pm 7.7 3.6 -0.5 56 3.2 NW 11 19 6 10 1012.2 1012.3 0.0
22/08:30pm 7.8 4.0 -0.7 55 3.3 W 9 17 5 9 1012.0 1012.0 0.0
22/08:00pm 8.0 3.4 -1.1 52 3.5 WNW 13 24 7 13 1011.6 1011.6 0.0
22/07:30pm 8.7 1.9 -1.8 47 4.0 NW 24 39 13 21 1011.3 1011.3 0.0
22/07:00pm 9.0 3.0 -1.7 47 4.1 NW 20 28 11 15 1011.0 1011.0 0.0
22/06:30pm 9.6 3.4 -2.9 41 4.7 NW 20 28 11 15 1010.7 1010.7 0.0
22/06:00pm 9.5 3.8 -3.5 40 4.8 NW 17 26 9 14 1010.4 1010.4 0.0
22/05:30pm 10.4 4.7 -3.9 36 5.3 NW 17 24 9 13 1010.1 1010.2 0.0
22/05:00pm 11.1 5.7 -4.8 32 5.8 WNW 15 24 8 13 1009.8 1009.9 0.0
22/04:30pm 11.7 6.1 -3.2 35 5.7 NNW 17 28 9 15 1009.5 1009.6 0.0
22/04:00pm 12.5 6.1 -5.1 29 6.5 NW 20 30 11 16 1009.5 1009.6 0.0
22/03:30pm 12.8 5.7 -4.5 29 6.5 NW 24 37 13 20 1009.2 1009.3 0.0
22/03:00pm 13.0 6.4 -2.9 33 6.2 NNW 22 35 12 19 1009.2 1009.3 0.0
22/02:30pm 13.2 6.6 -3.7 30 6.5 NW 22 33 12 18 1009.2 1009.3 0.0
22/02:00pm 13.1 7.5 -2.7 33 6.2 WNW 17 24 9 13 1009.1 1009.2 0.0
22/01:30pm 12.8 6.5 -3.7 31 6.3 NW 20 39 11 21 1009.0 1009.1 0.0
22/01:00pm 13.1 6.7 -1.9 35 6.0 NW 22 30 12 16 1009.1 1009.2 0.0

Latest Capital City Observations: Canberra | Sydney | Melbourne | Brisbane | Adelaide | Perth | Hobart | Darwin

Other Formats:

Comma delimited format used in spreadsheet applications
http://www.bom.gov.au/fwo/IDT60901/IDT60901.94970.axf

JavaScript Object Notation format (JSON) in row-major order
http://www.bom.gov.au/fwo/IDT60901/IDT60901.94970.json